Time;durP1;ratioP1;P1;durP2;ratioP2;P2;SDS_P1;SDS_P2;PMS_P1;PMS_P2;Temp;Humidity;BMP_temperature;BMP_pressure;BME280_temperature;BME280_humidity;BME280_pressure;Samples;Min_cycle;Max_cycle;Signal;HPM_P1;HPM_P2
2022/05/04 00:00:11;;;;;;;11.30;5.53;;;;;;;12.73;52.68;98987.13;1767835;81;21013;-42
2022/05/04 00:02:41;;;;;;;9.30;4.80;;;;;;;12.74;52.53;98990.05;1767963;81;21012;-43
2022/05/04 00:05:08;;;;;;;8.03;4.78;;;;;;;12.74;52.57;98991.41;1768232;80;21063;-43
2022/05/04 00:07:35;;;;;;;9.90;5.35;;;;;;;12.74;52.57;98990.62;1768499;81;21549;-43
2022/05/04 00:10:03;;;;;;;8.78;5.08;;;;;;;12.72;52.41;98996.47;1767886;80;21288;-43
2022/05/04 00:12:30;;;;;;;7.03;4.95;;;;;;;12.70;52.25;98992.55;1768458;81;20953;-42
2022/05/04 00:14:57;;;;;;;12.40;4.87;;;;;;;12.66;52.08;98995.27;1768043;81;21033;-44
2022/05/04 00:17:23;;;;;;;8.40;4.67;;;;;;;12.65;52.05;99003.22;1767890;81;21092;-44
2022/05/04 00:19:51;;;;;;;8.25;4.87;;;;;;;12.61;51.91;98997.77;1767992;81;21845;-44
2022/05/04 00:22:19;;;;;;;9.13;4.75;;;;;;;12.59;51.77;99003.37;1767703;81;20977;-44
2022/05/04 00:24:45;;;;;;;8.70;4.60;;;;;;;12.55;51.78;99003.94;1767898;81;20972;-44
2022/05/04 00:27:15;;;;;;;7.47;4.40;;;;;;;12.52;51.68;99005.50;1767936;81;21592;-44
2022/05/04 00:29:43;;;;;;;6.62;4.75;;;;;;;12.50;51.66;99005.66;1767954;81;21025;-44
2022/05/04 00:32:18;;;;;;;9.35;4.80;;;;;;;12.48;51.50;99014.80;1767912;81;21208;-44
2022/05/04 00:34:45;;;;;;;8.75;4.10;;;;;;;12.44;51.41;99022.91;1767765;80;20961;-44
2022/05/04 00:37:12;;;;;;;11.57;4.72;;;;;;;12.36;51.37;99024.03;1767655;81;20985;-44
2022/05/04 00:39:39;;;;;;;8.70;4.33;;;;;;;12.32;51.34;99022.45;1765912;81;20946;-44
2022/05/04 00:42:12;;;;;;;7.05;4.78;;;;;;;12.27;51.30;99020.88;1759834;80;21583;-44
2022/05/04 00:44:40;;;;;;;9.05;4.25;;;;;;;12.20;51.46;99023.53;1759805;81;21192;-44
2022/05/04 00:47:08;;;;;;;6.42;4.30;;;;;;;12.15;51.66;99026.63;1759523;81;20926;-44
2022/05/04 00:49:35;;;;;;;7.85;4.12;;;;;;;12.10;51.72;99026.98;1759809;81;21028;-43
2022/05/04 00:52:04;;;;;;;7.12;4.40;;;;;;;12.05;51.82;99027.33;1759860;81;21638;-44
2022/05/04 00:54:33;;;;;;;8.13;4.33;;;;;;;12.01;51.85;99030.00;1759879;80;21033;-44
2022/05/04 00:57:02;;;;;;;7.03;4.40;;;;;;;12.01;51.95;99031.93;1759906;80;21237;-43
2022/05/04 00:59:30;;;;;;;7.40;4.35;;;;;;;11.97;51.78;99033.84;1759864;81;20970;-44
2022/05/04 01:01:58;;;;;;;7.33;4.37;;;;;;;11.90;51.74;99031.88;1760109;81;20987;-44
2022/05/04 01:04:25;;;;;;;6.65;4.12;;;;;;;11.84;51.85;99032.58;1759634;81;21025;-44
2022/05/04 01:06:52;;;;;;;6.78;4.05;;;;;;;11.77;51.76;99034.65;1759881;81;21045;-44
2022/05/04 01:09:19;;;;;;;4.80;3.92;;;;;;;11.71;51.86;99035.53;1759632;81;21302;-44
2022/05/04 01:11:46;;;;;;;9.63;4.20;;;;;;;11.64;51.88;99033.34;1759440;81;21479;-44
2022/05/04 01:14:14;;;;;;;7.10;3.65;;;;;;;11.57;52.10;99034.05;1759688;81;21603;-44
2022/05/04 01:16:44;;;;;;;5.15;3.60;;;;;;;11.54;51.97;99036.16;1759962;81;21000;-44
2022/05/04 01:19:11;;;;;;;4.60;3.58;;;;;;;11.54;51.98;99039.45;1759681;81;20990;-44
2022/05/04 01:21:38;;;;;;;6.53;3.92;;;;;;;11.51;51.84;99039.64;1759600;81;21254;-44
2022/05/04 01:24:08;;;;;;;6.60;3.70;;;;;;;11.49;51.66;99044.64;1759484;81;21503;-43
2022/05/04 01:26:35;;;;;;;5.00;3.47;;;;;;;11.48;51.71;99048.50;1759911;81;21025;-43
2022/05/04 01:29:04;;;;;;;5.33;3.55;;;;;;;11.46;51.77;99048.11;1759753;81;21069;-43
2022/05/04 01:31:31;;;;;;;6.75;3.70;;;;;;;11.44;51.75;99041.48;1759982;81;21049;-43
2022/05/04 01:33:59;;;;;;;6.03;3.47;;;;;;;11.43;51.70;99051.55;1759727;80;21234;-44
2022/05/04 01:36:26;;;;;;;9.95;3.83;;;;;;;11.42;51.70;99047.30;1759732;81;21017;-43
2022/05/04 01:38:53;;;;;;;6.53;3.72;;;;;;;11.41;51.81;99050.38;1759795;81;21084;-44
2022/05/04 01:44:05;;;;;;;7.03;4.12;;;;;;;11.37;51.55;99054.42;1776160;80;21078;-44
2022/05/04 01:46:32;;;;;;;5.90;3.47;;;;;;;11.33;51.66;99056.29;1776136;80;21220;-44
2022/05/04 01:48:58;;;;;;;4.85;3.42;;;;;;;11.28;51.69;99049.84;1775966;80;21009;-43
2022/05/04 01:51:25;;;;;;;3.80;3.20;;;;;;;11.25;51.64;99050.59;1775762;80;21093;-44
2022/05/04 01:53:52;;;;;;;7.00;3.17;;;;;;;11.22;51.59;99055.41;1776117;80;21875;-44
2022/05/04 01:56:18;;;;;;;5.50;3.50;;;;;;;11.18;51.59;99062.73;1776069;80;21503;-44
2022/05/04 01:58:45;;;;;;;11.30;3.40;;;;;;;11.15;51.57;99060.75;1776014;80;21136;-44
2022/05/04 02:01:12;;;;;;;3.80;3.05;;;;;;;11.11;51.66;99062.64;1775948;80;21088;-43
2022/05/04 02:03:39;;;;;;;6.03;3.20;;;;;;;11.08;51.56;99064.17;1776097;80;21518;-43
2022/05/04 02:06:06;;;;;;;5.65;3.52;;;;;;;11.06;51.80;99061.03;1775883;80;21634;-43
2022/05/04 02:08:35;;;;;;;9.25;4.00;;;;;;;11.04;51.97;99063.33;1776034;80;20910;-43
2022/05/04 02:11:02;;;;;;;8.23;3.17;;;;;;;10.99;51.91;99064.25;1776178;80;21234;-43
2022/05/04 02:13:29;;;;;;;5.25;3.35;;;;;;;10.94;52.11;99070.00;1776071;80;21557;-43
2022/05/04 02:15:56;;;;;;;6.85;3.37;;;;;;;10.87;52.28;99070.68;1775995;80;20913;-43
2022/05/04 02:18:22;;;;;;;5.97;3.33;;;;;;;10.86;52.50;99082.09;1776300;80;21024;-42
2022/05/04 02:20:49;;;;;;;7.22;3.75;;;;;;;10.79;52.53;99080.66;1776185;80;21029;-42
2022/05/04 02:23:16;;;;;;;5.87;3.27;;;;;;;10.76;52.68;99086.02;1776360;80;21123;-43
2022/05/04 02:25:43;;;;;;;4.83;3.40;;;;;;;10.70;52.84;99090.97;1776386;80;21016;-42
2022/05/04 02:28:10;;;;;;;6.62;3.47;;;;;;;10.63;53.02;99089.53;1776507;80;20968;-43
2022/05/04 02:30:38;;;;;;;4.28;3.33;;;;;;;10.57;52.96;99090.98;1776392;80;21051;-43
2022/05/04 02:33:04;;;;;;;6.40;3.25;;;;;;;10.47;53.11;99094.32;1776240;80;21025;-42
2022/05/04 02:38:16;;;;;;;4.97;3.30;;;;;;;10.33;53.51;99096.82;1776157;80;20956;-42
2022/05/04 02:40:43;;;;;;;4.87;3.52;;;;;;;10.32;53.67;99108.80;1772707;80;21005;-43
2022/05/04 02:43:10;;;;;;;5.35;3.42;;;;;;;10.31;53.50;99111.32;1767863;81;21025;-44
2022/05/04 02:45:38;;;;;;;5.70;3.70;;;;;;;10.30;53.48;99104.33;1767920;80;20961;-43
2022/05/04 02:48:08;;;;;;;6.90;3.40;;;;;;;10.31;53.55;99114.03;1767978;80;21286;-43
2022/05/04 02:50:35;;;;;;;4.87;3.15;;;;;;;10.33;53.48;99111.72;1767890;81;21033;-44
2022/05/04 02:53:04;;;;;;;6.25;3.08;;;;;;;10.35;53.57;99117.58;1767803;80;21900;-44
2022/05/04 02:55:31;;;;;;;4.58;3.40;;;;;;;10.37;53.51;99122.03;1768112;81;21017;-44
2022/05/04 02:57:58;;;;;;;5.85;3.72;;;;;;;10.39;53.57;99118.41;1768097;81;21764;-44
2022/05/04 03:00:29;;;;;;;6.20;3.35;;;;;;;10.40;53.51;99121.33;1768042;81;21815;-44
2022/05/04 03:02:54;;;;;;;5.67;3.62;;;;;;;10.41;53.66;99127.72;1767708;81;20993;-44
2022/05/04 03:05:23;;;;;;;5.70;3.02;;;;;;;10.42;53.66;99124.44;1767924;81;21018;-44
2022/05/04 03:07:50;;;;;;;5.87;3.55;;;;;;;10.40;53.68;99124.83;1767919;81;20975;-44
2022/05/04 03:10:18;;;;;;;6.30;3.67;;;;;;;10.41;53.75;99132.36;1767980;80;21004;-44
2022/05/04 03:12:44;;;;;;;4.67;3.30;;;;;;;10.40;53.83;99126.18;1768620;81;21255;-44
2022/05/04 03:15:11;;;;;;;9.85;3.72;;;;;;;10.40;53.93;99132.17;1768123;80;20961;-43
2022/05/04 03:17:38;;;;;;;6.42;3.27;;;;;;;10.42;53.95;99139.34;1768036;81;21001;-43
2022/05/04 03:20:06;;;;;;;5.72;3.50;;;;;;;10.42;53.91;99143.41;1767810;80;20965;-44
2022/05/04 03:22:33;;;;;;;7.33;3.50;;;;;;;10.45;53.88;99146.77;1768388;81;21005;-44
2022/05/04 03:25:00;;;;;;;7.67;3.40;;;;;;;10.47;54.02;99152.59;1768009;80;21222;-44
2022/05/04 03:27:27;;;;;;;6.58;3.67;;;;;;;10.49;54.15;99155.73;1767800;81;21088;-44
2022/05/04 03:29:53;;;;;;;7.53;3.80;;;;;;;10.51;54.15;99156.14;1767870;80;21495;-44
2022/05/04 03:32:20;;;;;;;8.53;3.90;;;;;;;10.52;54.10;99159.63;1767720;80;21012;-44
2022/05/04 03:34:47;;;;;;;7.55;4.00;;;;;;;10.52;54.28;99167.20;1767746;81;21488;-44
2022/05/04 03:37:14;;;;;;;6.05;3.30;;;;;;;10.52;54.27;99172.61;1767715;80;21140;-44
2022/05/04 03:39:41;;;;;;;6.37;3.67;;;;;;;10.50;54.33;99172.78;1767978;80;21072;-44
2022/05/04 03:42:12;;;;;;;4.75;3.35;;;;;;;10.47;54.44;99172.92;1767756;81;20985;-44
2022/05/04 03:44:38;;;;;;;4.70;3.50;;;;;;;10.46;54.54;99182.97;1767851;81;21084;-43
2022/05/04 03:47:06;;;;;;;6.62;4.10;;;;;;;10.47;54.73;99190.53;1767995;81;21068;-43
2022/05/04 03:49:33;;;;;;;9.45;3.67;;;;;;;10.46;54.71;99188.97;1767767;81;21117;-43
2022/05/04 03:51:59;;;;;;;6.85;4.22;;;;;;;10.44;54.83;99192.63;1767707;81;21562;-43
2022/05/04 03:54:26;;;;;;;6.58;3.55;;;;;;;10.46;54.95;99197.09;1767800;80;21028;-43
2022/05/04 03:56:53;;;;;;;7.83;3.55;;;;;;;10.48;55.18;99197.53;1767808;81;21084;-44
2022/05/04 03:59:19;;;;;;;7.12;4.00;;;;;;;10.51;55.11;99200.86;1767928;81;21472;-44
2022/05/04 04:01:46;;;;;;;8.30;3.92;;;;;;;10.54;55.17;99201.51;1768152;80;21135;-44
2022/05/04 04:04:14;;;;;;;6.78;3.90;;;;;;;10.55;55.17;99205.79;1768077;80;21551;-44
2022/05/04 04:06:40;;;;;;;8.03;3.70;;;;;;;10.57;55.13;99205.41;1768066;81;20994;-44
2022/05/04 04:09:07;;;;;;;5.58;3.83;;;;;;;10.58;55.09;99206.98;1767929;81;21585;-43
2022/05/04 04:11:34;;;;;;;7.90;4.17;;;;;;;10.60;55.15;99200.63;1767949;80;21263;-43
2022/05/04 04:14:01;;;;;;;5.08;3.55;;;;;;;10.62;55.26;99203.17;1767973;80;21224;-44
2022/05/04 04:16:29;;;;;;;9.80;3.70;;;;;;;10.67;55.36;99206.16;1767854;80;20980;-44
2022/05/04 04:18:55;;;;;;;8.45;3.95;;;;;;;10.68;55.10;99204.44;1767785;81;20993;-44
2022/05/04 04:24:08;;;;;;;6.17;3.72;;;;;;;10.74;55.11;99217.91;1767947;81;20977;-44
2022/05/04 04:26:38;;;;;;;6.45;3.98;;;;;;;10.75;54.97;99216.73;1767938;81;21309;-44
2022/05/04 04:29:05;;;;;;;;;;;;;;;10.79;54.89;99216.25;1770557;80;21008;-43
2022/05/04 04:31:32;;;;;;;7.42;3.72;;;;;;;10.83;54.83;99221.15;1767908;80;20121;-44
2022/05/04 04:34:01;;;;;;;5.33;3.65;;;;;;;10.79;54.95;99220.88;1767908;81;20937;-44
2022/05/04 04:36:28;;;;;;;5.53;3.75;;;;;;;10.85;55.04;99218.84;1767800;81;21088;-44
2022/05/04 04:38:55;;;;;;;5.92;3.60;;;;;;;10.92;54.81;99225.52;1767901;81;21298;-44
2022/05/04 04:41:22;;;;;;;4.67;3.62;;;;;;;10.96;54.88;99229.06;1767684;80;21037;-44
2022/05/04 04:43:49;;;;;;;5.45;3.37;;;;;;;11.02;55.00;99226.27;1767777;81;20938;-44
2022/05/04 04:46:16;;;;;;;7.25;3.65;;;;;;;11.06;54.65;99226.52;1767770;81;20969;-44
2022/05/04 04:48:43;;;;;;;5.78;3.70;;;;;;;11.12;55.00;99233.20;1767819;80;21012;-44
2022/05/04 04:51:10;;;;;;;5.60;3.50;;;;;;;11.18;54.80;99226.89;1767944;80;21512;-44
2022/05/04 04:53:38;;;;;;;4.70;3.77;;;;;;;11.23;54.78;99231.41;1768029;80;21029;-44
2022/05/04 04:56:06;;;;;;;5.97;3.80;;;;;;;11.28;54.45;99229.73;1768027;80;21520;-44
2022/05/04 04:58:33;;;;;;;6.90;4.03;;;;;;;11.37;54.52;99232.20;1767987;81;21266;-43
2022/05/04 05:01:00;;;;;;;10.15;3.50;;;;;;;11.46;54.16;99243.56;1768098;80;21095;-44
2022/05/04 05:03:27;;;;;;;6.83;3.80;;;;;;;11.53;54.28;99238.21;1768079;81;21120;-44
2022/05/04 05:05:55;;;;;;;5.20;3.05;;;;;;;11.62;54.03;99234.64;1768103;80;21029;-44
2022/05/04 05:08:21;;;;;;;6.70;3.67;;;;;;;11.73;53.82;99241.59;1767813;81;21037;-44
2022/05/04 05:10:48;;;;;;;9.35;3.17;;;;;;;11.85;53.53;99235.15;1767711;81;21021;-44
2022/05/04 05:13:15;;;;;;;7.28;3.65;;;;;;;11.94;53.15;99230.20;1767874;81;20993;-44
2022/05/04 05:18:27;;;;;;;7.85;3.30;;;;;;;12.11;52.34;99241.83;1767817;81;21387;-44
2022/05/04 05:20:54;;;;;;;4.70;3.47;;;;;;;12.14;52.17;99239.17;1767930;80;21786;-44
2022/05/04 05:23:21;;;;;;;7.78;3.70;;;;;;;12.17;51.69;99245.78;1767622;81;21610;-44
2022/05/04 05:25:47;;;;;;;7.20;3.77;;;;;;;12.18;51.87;99246.00;1767992;81;22171;-43
2022/05/04 05:28:14;;;;;;;5.17;3.55;;;;;;;12.17;51.36;99247.14;1767796;80;21083;-44
2022/05/04 05:30:42;;;;;;;10.90;4.10;;;;;;;12.15;51.68;99249.47;1767672;81;21594;-44
2022/05/04 05:33:09;;;;;;;7.00;4.15;;;;;;;12.15;51.67;99242.67;1767755;81;20988;-44
2022/05/04 05:35:36;;;;;;;8.98;3.80;;;;;;;12.20;51.82;99250.46;1767935;80;21503;-44
2022/05/04 05:38:04;;;;;;;4.83;3.62;;;;;;;12.26;52.00;99248.98;1768147;81;20990;-44
2022/05/04 05:40:30;;;;;;;6.47;3.27;;;;;;;12.34;52.17;99256.08;1767826;81;23121;-44
2022/05/04 05:42:57;;;;;;;6.47;3.30;;;;;;;12.43;51.84;99253.83;1767941;80;20946;-44
2022/05/04 05:45:24;;;;;;;6.00;3.70;;;;;;;12.53;51.92;99262.67;1767988;81;20941;-44
2022/05/04 05:47:51;;;;;;;9.33;4.00;;;;;;;12.66;51.77;99260.44;1767796;81;21088;-44
2022/05/04 05:50:18;;;;;;;6.08;3.62;;;;;;;12.75;51.13;99263.63;1771031;79;21035;-44
2022/05/04 05:52:45;;;;;;;6.55;3.65;;;;;;;12.79;50.65;99262.28;1777839;80;21224;-44
2022/05/04 05:56:42;;;;;;;5.37;3.60;;;;;;;12.92;50.11;99259.50;1843227;76;22140;-43
2022/05/04 05:59:08;;;;;;;4.80;3.87;;;;;;;12.88;50.60;99265.47;1814028;79;20950;-44
2022/05/04 06:01:35;;;;;;;5.53;3.70;;;;;;;12.99;50.42;99271.20;1814207;79;21118;-44
2022/05/04 06:04:01;;;;;;;6.95;3.50;;;;;;;13.11;50.20;99276.16;1814106;79;20891;-44
2022/05/04 06:06:29;;;;;;;4.92;3.77;;;;;;;13.21;50.12;99277.63;1814206;79;21630;-44
2022/05/04 06:08:56;;;;;;;5.62;3.60;;;;;;;13.34;49.43;99278.88;1814171;79;20939;-44
2022/05/04 06:11:23;;;;;;;10.95;4.33;;;;;;;13.43;48.81;99283.41;1814028;79;20978;-44
2022/05/04 06:13:52;;;;;;;8.40;3.92;;;;;;;13.51;48.75;99287.55;1814277;79;21107;-44
2022/05/04 06:16:19;;;;;;;6.03;3.50;;;;;;;13.60;48.79;99285.25;1814157;79;20990;-44
2022/05/04 06:18:46;;;;;;;6.42;3.95;;;;;;;13.70;48.74;99285.89;1814258;79;21577;-44
2022/05/04 06:21:13;;;;;;;7.83;3.72;;;;;;;13.82;48.74;99292.36;1813998;79;21026;-44
2022/05/04 06:23:40;;;;;;;5.50;3.27;;;;;;;13.94;47.77;99277.05;1814031;79;21078;-44
2022/05/04 06:26:07;;;;;;;5.50;3.98;;;;;;;14.06;47.41;99284.87;1814137;79;21551;-44
2022/05/04 06:28:34;;;;;;;6.95;3.70;;;;;;;14.20;47.61;99276.73;1814036;79;21009;-44
2022/05/04 06:36:31;;;;;;;9.65;4.12;;;;;;;14.53;45.64;99271.57;1814088;79;21741;-44
2022/05/04 06:38:57;;;;;;;6.33;3.33;;;;;;;14.61;45.62;99281.34;1813960;79;21260;-44
2022/05/04 06:41:24;;;;;;;8.15;3.92;;;;;;;14.68;44.93;99284.64;1813939;79;21562;-44
2022/05/04 06:43:51;;;;;;;9.33;3.87;;;;;;;14.71;45.41;99290.13;1813956;79;21005;-44
2022/05/04 06:46:18;;;;;;;3.75;2.95;;;;;;;14.77;45.38;99289.14;1813949;79;20970;-44
2022/05/04 06:48:49;;;;;;;5.42;3.10;;;;;;;14.84;45.48;99294.61;1814086;79;20987;-44
2022/05/04 06:51:13;;;;;;;6.10;3.20;;;;;;;14.92;44.50;99287.98;1812951;79;23141;-44
2022/05/04 06:53:40;;;;;;;7.58;3.62;;;;;;;15.01;44.72;99288.95;1814139;79;20983;-44
2022/05/04 06:56:08;;;;;;;6.42;3.47;;;;;;;15.12;44.59;99289.15;1814080;78;20958;-44
2022/05/04 06:58:35;;;;;;;6.53;3.70;;;;;;;15.21;44.86;99292.26;1809382;79;21030;-44
2022/05/04 07:01:03;;;;;;;6.00;3.75;;;;;;;15.30;44.87;99289.73;1814164;79;21026;-44
2022/05/04 07:03:30;;;;;;;6.17;3.00;;;;;;;15.38;44.31;99289.33;1813991;79;21222;-44
2022/05/04 07:05:58;;;;;;;4.50;2.80;;;;;;;15.50;44.08;99300.41;1813869;79;21005;-44
2022/05/04 07:08:25;;;;;;;4.35;2.47;;;;;;;15.60;43.64;99305.10;1813225;79;20987;-44
2022/05/04 07:10:52;;;;;;;3.60;2.42;;;;;;;15.70;43.54;99307.03;1813277;79;20971;-44
2022/05/04 07:13:19;;;;;;;5.28;2.65;;;;;;;15.83;42.41;99304.67;1813483;79;21097;-44
2022/05/04 07:15:46;;;;;;;4.30;2.80;;;;;;;15.92;42.07;99309.13;1813386;79;21181;-44
2022/05/04 07:18:12;;;;;;;5.85;3.08;;;;;;;15.99;42.12;99307.13;1813350;79;21012;-44
2022/05/04 07:20:39;;;;;;;6.30;3.40;;;;;;;16.10;42.37;99308.47;1813315;79;20954;-44
2022/05/04 07:23:06;;;;;;;5.33;2.70;;;;;;;16.23;42.54;99313.67;1813585;79;21013;-44
2022/05/04 07:25:33;;;;;;;3.58;1.82;;;;;;;16.37;41.21;99312.23;1813340;79;21049;-44
2022/05/04 07:27:59;;;;;;;6.17;2.25;;;;;;;16.46;40.77;99314.52;1813549;79;21129;-43
2022/05/04 07:30:27;;;;;;;6.17;2.50;;;;;;;16.48;38.45;99321.17;1813282;79;21541;-43
2022/05/04 07:32:54;;;;;;;7.00;2.62;;;;;;;16.49;38.28;99317.26;1813455;79;20931;-44
2022/05/04 07:35:21;;;;;;;3.55;2.40;;;;;;;16.46;38.88;99325.47;1813342;79;21467;-42
2022/05/04 07:37:49;;;;;;;4.92;2.35;;;;;;;16.52;38.27;99323.29;1813652;79;20986;-43
2022/05/04 07:43:01;;;;;;;4.60;2.47;;;;;;;16.69;38.57;99324.41;1813756;79;21018;-43
2022/05/04 07:45:30;;;;;;;12.28;2.80;;;;;;;16.73;38.76;99316.94;1813407;79;21316;-43
2022/05/04 07:47:57;;;;;;;3.60;2.30;;;;;;;16.79;38.90;99320.04;1813755;79;21026;-43
2022/05/04 07:50:25;;;;;;;6.67;2.80;;;;;;;16.87;39.31;99325.64;1813439;79;21535;-43
2022/05/04 07:52:53;;;;;;;3.70;2.37;;;;;;;17.00;39.76;99328.67;1813366;79;21900;-44
2022/05/04 07:55:20;;;;;;;3.15;2.00;;;;;;;17.17;39.16;99329.14;1813182;78;21057;-44
2022/05/04 07:57:48;;;;;;;4.58;1.82;;;;;;;17.30;38.29;99323.34;1813365;79;21006;-44
2022/05/04 08:05:47;;;;;;;7.58;2.00;;;;;;;17.47;35.77;99338.86;1813509;79;21222;-44
2022/05/04 08:08:14;;;;;;;3.22;1.95;;;;;;;17.57;36.49;99337.95;1813269;79;21068;-44
2022/05/04 08:10:41;;;;;;;5.60;2.10;;;;;;;17.73;36.05;99336.07;1813521;79;21473;-45
2022/05/04 08:13:08;;;;;;;6.20;2.10;;;;;;;17.86;36.75;99341.83;1813532;79;21309;-45
2022/05/04 08:15:37;;;;;;;4.25;2.30;;;;;;;17.97;36.09;99339.73;1813420;79;21013;-45
2022/05/04 08:18:04;;;;;;;5.47;2.30;;;;;;;18.09;35.26;99338.62;1813275;79;21108;-45
2022/05/04 08:20:31;;;;;;;5.08;2.35;;;;;;;18.17;35.49;99338.70;1813451;79;20997;-45
2022/05/04 08:22:58;;;;;;;4.85;2.08;;;;;;;18.17;36.01;99347.53;1813301;79;21010;-45
2022/05/04 08:25:25;;;;;;;6.87;1.87;;;;;;;18.21;35.33;99341.40;1813375;79;21345;-45
2022/05/04 08:27:53;;;;;;;6.83;2.05;;;;;;;18.22;34.35;99351.19;1813533;79;21017;-45
2022/05/04 08:30:25;;;;;;;3.15;1.90;;;;;;;18.04;34.14;99354.16;1813624;79;21218;-44
2022/05/04 08:32:50;;;;;;;6.95;2.15;;;;;;;17.89;35.08;99345.12;1812689;79;21010;-44
2022/05/04 08:35:17;;;;;;;5.95;1.82;;;;;;;17.85;35.07;99343.01;1813334;79;21022;-44
2022/05/04 08:37:44;;;;;;;6.37;2.10;;;;;;;17.79;35.42;99342.08;1813479;79;21014;-45
2022/05/04 08:40:12;;;;;;;3.60;2.08;;;;;;;17.75;35.84;99341.34;1813346;79;20984;-45
2022/05/04 08:42:45;;;;;;;4.83;2.30;;;;;;;17.81;36.59;99342.44;1813331;79;21099;-45
2022/05/04 08:45:12;;;;;;;3.27;2.00;;;;;;;17.89;36.63;99347.86;1813241;79;20907;-45
2022/05/04 08:47:41;;;;;;;5.85;2.00;;;;;;;17.98;36.03;99350.30;1813348;79;21004;-45
2022/05/04 08:50:14;;;;;;;4.45;1.70;;;;;;;18.07;36.33;99355.29;1813249;79;21521;-45
2022/05/04 08:52:44;;;;;;;5.70;1.70;;;;;;;18.16;34.88;99356.35;1813249;79;20893;-44
2022/05/04 08:55:11;;;;;;;4.33;2.58;;;;;;;18.22;34.98;99359.42;1813275;79;23175;-45
2022/05/04 08:57:39;;;;;;;6.47;2.92;;;;;;;18.25;34.80;99359.97;1825457;78;21033;-45
2022/05/04 09:00:10;;;;;;;2.72;1.75;;;;;;;18.19;35.57;99354.17;1825665;78;20971;-45
2022/05/04 09:02:38;;;;;;;;;;;;;;;18.25;34.82;99358.59;1828593;78;20966;-44
2022/05/04 09:05:19;;;;;;;3.10;1.50;;;;;;;18.39;33.84;99358.44;1825969;78;20165;-44
2022/05/04 09:07:49;;;;;;;4.35;1.60;;;;;;;18.47;33.52;99353.03;1825968;78;21204;-44
2022/05/04 09:10:34;;;;;;;2.75;1.72;;;;;;;18.66;33.83;99355.16;1825870;78;21020;-44
2022/05/04 09:13:03;;;;;;;4.15;1.80;;;;;;;18.82;33.57;99359.26;1815584;78;20927;-44
2022/05/04 09:15:35;;;;;;;2.72;1.80;;;;;;;18.96;33.16;99354.92;1825886;78;21018;-45
2022/05/04 09:18:08;;;;;;;3.67;1.45;;;;;;;19.11;33.02;99361.77;1826039;78;20906;-45
2022/05/04 09:20:47;;;;;;;3.40;1.40;;;;;;;19.24;33.05;99364.09;1825633;78;21352;-45
2022/05/04 09:23:28;;;;;;;2.83;1.30;;;;;;;19.31;32.53;99358.50;1825721;78;21221;-45
2022/05/04 09:26:02;;;;;;;2.27;1.47;;;;;;;19.40;32.77;99353.83;1825751;78;20927;-45
2022/05/04 09:28:29;;;;;;;5.53;1.62;;;;;;;19.45;31.22;99355.53;1807188;78;20934;-45
2022/05/04 09:30:59;;;;;;;4.60;1.80;;;;;;;19.29;30.87;99356.75;1788051;80;21038;-45
2022/05/04 09:33:29;;;;;;;4.42;1.62;;;;;;;18.97;31.59;99364.73;1787806;80;21180;-45
2022/05/04 09:35:57;;;;;;;4.45;1.50;;;;;;;18.67;32.26;99361.42;1788014;79;21018;-44
2022/05/04 09:46:51;;;;;;;2.27;1.10;;;;;;;18.22;32.33;99358.05;1788177;80;21314;-45
2022/05/04 09:49:21;;;;;;;4.10;1.50;;;;;;;18.16;32.49;99347.34;1788252;80;21461;-44
2022/05/04 09:51:51;;;;;;;4.10;1.57;;;;;;;18.12;32.34;99360.33;1786672;80;20995;-45
2022/05/04 09:54:29;;;;;;;1.57;1.27;;;;;;;18.04;31.92;99354.16;1788156;80;21069;-45
2022/05/04 09:57:02;;;;;;;5.22;1.52;;;;;;;18.01;32.31;99359.69;1788055;79;21069;-45
2022/05/04 09:59:36;;;;;;;2.95;1.40;;;;;;;18.05;32.81;99358.46;1787773;80;21527;-45
2022/05/04 10:02:07;;;;;;;3.80;1.40;;;;;;;18.07;32.33;99352.55;1787789;80;21030;-45
2022/05/04 10:04:36;;;;;;;3.05;1.65;;;;;;;17.95;31.72;99359.95;1787852;80;20993;-45
2022/05/04 10:07:04;;;;;;;3.20;1.20;;;;;;;17.80;32.84;99357.36;1788129;80;21014;-45
2022/05/04 10:09:30;;;;;;;4.65;1.60;;;;;;;17.74;33.32;99348.59;1788037;80;21516;-45
2022/05/04 10:11:58;;;;;;;2.00;1.20;;;;;;;17.72;32.97;99344.11;1787845;80;21138;-45
2022/05/04 10:14:27;;;;;;;3.75;1.52;;;;;;;17.74;32.10;99355.45;1787805;80;21033;-45
2022/05/04 10:16:59;;;;;;;3.35;1.70;;;;;;;17.72;32.09;99350.37;1787940;80;21080;-44
2022/05/04 10:19:37;;;;;;;5.92;1.50;;;;;;;17.74;32.66;99360.94;1787927;80;21528;-45
2022/05/04 10:22:06;;;;;;;2.67;1.30;;;;;;;17.77;33.07;99363.64;1788079;80;21007;-45
2022/05/04 10:24:35;;;;;;;4.90;1.55;;;;;;;17.80;33.21;99364.80;1787947;80;21333;-45
2022/05/04 10:27:19;;;;;;;4.58;1.90;;;;;;;17.81;32.77;99365.75;1787877;80;20993;-45
2022/05/04 10:32:44;;;;;;;4.70;2.50;;;;;;;17.67;32.77;99365.89;1765622;80;22119;-45
2022/05/04 10:35:35;;;;;;;4.15;2.35;;;;;;;17.56;32.15;99366.57;1787892;80;21074;-45
2022/05/04 10:38:12;;;;;;;3.02;1.40;;;;;;;17.49;32.90;99369.37;1787813;80;23143;-45
2022/05/04 10:40:57;;;;;;;3.00;1.40;;;;;;;17.56;32.16;99363.05;1787754;80;21516;-45
2022/05/04 10:43:51;;;;;;;3.60;1.55;;;;;;;17.67;31.80;99367.27;1787877;80;21046;-45
2022/05/04 10:46:23;;;;;;;2.70;1.42;;;;;;;17.73;32.26;99365.64;1787173;80;22183;-45
2022/05/04 10:48:58;;;;;;;3.33;1.30;;;;;;;17.87;31.98;99362.56;1788102;80;21086;-44
2022/05/04 10:51:30;;;;;;;3.80;1.75;;;;;;;17.99;32.39;99357.94;1787861;80;21120;-44
2022/05/04 10:54:17;;;;;;;5.45;1.75;;;;;;;18.05;31.82;99366.69;1788142;80;20991;-45
2022/05/04 10:56:50;;;;;;;4.08;1.90;;;;;;;18.06;30.84;99364.11;1788058;80;21034;-45
2022/05/04 10:59:34;;;;;;;4.28;1.67;;;;;;;18.02;31.08;99367.49;1788113;80;20995;-45
2022/05/04 11:02:04;;;;;;;4.42;1.60;;;;;;;17.98;30.77;99359.12;1788349;80;21097;-45
2022/05/04 11:04:34;;;;;;;4.53;1.95;;;;;;;17.89;30.97;99364.31;1787147;80;21079;-45
2022/05/04 11:07:06;;;;;;;4.20;1.72;;;;;;;17.83;31.34;99361.83;1787974;80;20928;-45
2022/05/04 11:09:43;;;;;;;3.45;1.47;;;;;;;17.90;31.76;99358.43;1788470;80;21005;-45
2022/05/04 11:12:13;;;;;;;4.72;1.45;;;;;;;18.17;31.44;99365.36;1787912;80;21077;-45
2022/05/04 11:14:40;;;;;;;2.22;1.37;;;;;;;18.71;30.93;99359.41;1762309;80;21022;-45
2022/05/04 11:17:15;;;;;;;4.22;1.60;;;;;;;19.38;29.80;99355.61;1787990;80;21127;-45
2022/05/04 11:19:46;;;;;;;3.47;1.75;;;;;;;19.78;28.95;99353.77;1788004;80;20998;-45
2022/05/04 11:22:15;;;;;;;4.00;1.57;;;;;;;19.89;28.09;99360.45;1787722;80;21042;-45
2022/05/04 11:24:42;;;;;;;3.72;1.90;;;;;;;19.75;28.02;99367.59;1788293;80;20986;-44
2022/05/04 11:27:08;;;;;;;3.35;1.85;;;;;;;19.56;28.24;99366.33;1761509;80;21061;-45
2022/05/04 11:29:35;;;;;;;4.25;2.02;;;;;;;19.42;28.79;99360.45;1787826;80;23118;-44
2022/05/04 11:32:04;;;;;;;5.80;1.50;;;;;;;19.31;28.42;99365.37;1787787;80;21732;-45
2022/05/04 11:34:35;;;;;;;4.00;1.50;;;;;;;19.17;28.04;99373.06;1788253;80;20962;-45
2022/05/04 11:37:09;;;;;;;3.25;1.40;;;;;;;19.00;27.91;99359.77;1788286;80;20978;-45
2022/05/04 11:39:37;;;;;;;4.67;1.30;;;;;;;18.88;27.25;99361.73;1788217;79;21034;-45
2022/05/04 11:42:07;;;;;;;2.83;1.12;;;;;;;18.81;27.78;99356.33;1788387;80;21065;-45
2022/05/04 11:44:34;;;;;;;2.98;1.40;;;;;;;18.86;28.21;99351.73;1787902;80;21037;-45
2022/05/04 11:47:02;;;;;;;2.52;1.62;;;;;;;19.09;28.33;99357.27;1787815;80;21073;-45
2022/05/04 11:49:32;;;;;;;4.20;1.32;;;;;;;19.44;28.54;99353.98;1787941;80;21081;-45
2022/05/04 11:51:59;;;;;;;6.00;1.62;;;;;;;19.72;28.11;99354.66;1788160;80;21545;-45
2022/05/04 11:54:26;;;;;;;4.58;1.80;;;;;;;19.73;27.82;99362.50;1787775;80;23191;-45
2022/05/04 11:56:53;;;;;;;3.22;1.45;;;;;;;19.66;28.08;99356.33;1789016;80;21077;-45
2022/05/04 11:59:20;;;;;;;2.83;1.50;;;;;;;19.70;27.08;99358.45;1792441;80;20919;-45
2022/05/04 12:01:46;;;;;;;4.05;1.60;;;;;;;19.97;26.99;99352.22;1792401;80;21021;-45
2022/05/04 12:04:13;;;;;;;2.98;1.50;;;;;;;20.30;27.07;99346.25;1810103;79;21009;-45
2022/05/04 12:06:42;;;;;;;2.98;1.32;;;;;;;20.48;26.61;99345.92;1781175;79;21797;-43
2022/05/04 12:09:11;;;;;;;2.25;1.50;;;;;;;20.53;26.48;99346.17;1810490;79;21215;-44
2022/05/04 12:11:40;;;;;;;3.80;1.82;;;;;;;20.44;26.43;99349.33;1780898;79;21052;-44
2022/05/04 12:14:06;;;;;;;8.40;2.02;;;;;;;20.11;26.79;99355.30;1781728;79;21507;-44
2022/05/04 12:16:36;;;;;;;3.52;1.92;;;;;;;19.73;27.27;99366.63;1781451;79;21025;-44